Time;durP1;ratioP1;P1;durP2;ratioP2;P2;SDS_P1;SDS_P2;PMS_P1;PMS_P2;Temp;Humidity;BMP_temperature;BMP_pressure;BME280_temperature;BME280_humidity;BME280_pressure;Samples;Min_cycle;Max_cycle;Signal;HPM_P1;HPM_P2
2023/12/02 00:01:58;;;;;;;43.75;22.38;;;;;;;;;;5053465;28;20970;-77
2023/12/02 00:04:24;;;;;;;42.10;23.42;;;;;;;;;;5053736;28;20414;-77
2023/12/02 00:06:50;;;;;;;42.65;22.60;;;;;;;;;;5071678;28;20469;-77
2023/12/02 00:09:16;;;;;;;45.13;22.92;;;;;;;;;;5070455;28;20410;-77
2023/12/02 00:11:42;;;;;;;42.20;23.13;;;;;;;;;;5069246;28;20974;-77
2023/12/02 00:14:09;;;;;;;42.88;23.33;;;;;;;;;;5048881;28;20492;-77
2023/12/02 00:16:35;;;;;;;42.85;22.83;;;;;;;;;;5054336;28;20403;-77
2023/12/02 00:19:01;;;;;;;43.55;23.67;;;;;;;;;;5086365;28;20438;-77
2023/12/02 00:21:27;;;;;;;44.90;23.70;;;;;;;;;;5053538;28;20513;-77
2023/12/02 00:23:53;;;;;;;46.58;24.55;;;;;;;;;;5053450;28;20415;-78
2023/12/02 00:26:19;;;;;;;43.90;23.52;;;;;;;;;;5070552;28;20404;-77
2023/12/02 00:28:45;;;;;;;45.10;24.70;;;;;;;;;;5070842;28;20424;-77
2023/12/02 00:31:11;;;;;;;44.13;24.25;;;;;;;;;;5069966;28;20916;-78
2023/12/02 00:33:37;;;;;;;43.75;23.40;;;;;;;;;;5068303;28;20453;-78
2023/12/02 00:36:03;;;;;;;42.83;23.15;;;;;;;;;;5070285;28;20407;-77
2023/12/02 00:38:29;;;;;;;44.07;23.70;;;;;;;;;;5052150;28;20400;-77
2023/12/02 00:40:56;;;;;;;41.63;23.50;;;;;;;;;;5069486;28;20419;-77
2023/12/02 00:43:22;;;;;;;42.15;23.48;;;;;;;;;;5053904;28;20891;-78
2023/12/02 00:45:48;;;;;;;42.92;23.05;;;;;;;;;;5069329;28;20957;-77
2023/12/02 00:48:14;;;;;;;40.03;22.30;;;;;;;;;;5087226;28;20823;-77
2023/12/02 00:50:40;;;;;;;43.83;23.70;;;;;;;;;;5068859;28;20477;-77
2023/12/02 00:53:06;;;;;;;44.60;23.52;;;;;;;;;;5056296;28;20456;-77
2023/12/02 00:55:33;;;;;;;45.63;23.88;;;;;;;;;;5053750;28;20503;-77
2023/12/02 00:57:59;;;;;;;41.83;23.30;;;;;;;;;;5053346;28;20525;-77
2023/12/02 01:00:25;;;;;;;42.13;22.58;;;;;;;;;;5069667;28;20407;-77
2023/12/02 01:02:51;;;;;;;41.70;22.40;;;;;;;;;;5069813;28;20403;-78
2023/12/02 01:05:18;;;;;;;43.28;23.02;;;;;;;;;;5087206;28;20747;-78
2023/12/02 01:07:44;;;;;;;41.63;23.05;;;;;;;;;;5069849;28;20438;-77
2023/12/02 01:10:12;;;;;;;44.10;23.07;;;;;;;;;;5053048;28;20426;-78
2023/12/02 01:12:41;;;;;;;43.50;23.20;;;;;;;;;;5067393;28;20419;-77
2023/12/02 01:15:08;;;;;;;45.17;23.23;;;;;;;;;;5070012;28;20549;-77
2023/12/02 01:17:34;;;;;;;43.53;22.83;;;;;;;;;;5069681;28;20960;-78
2023/12/02 01:20:00;;;;;;;45.80;23.63;;;;;;;;;;5069431;28;20426;-78
2023/12/02 01:22:26;;;;;;;47.15;24.65;;;;;;;;;;5070147;28;20916;-78
2023/12/02 01:24:52;;;;;;;45.40;23.65;;;;;;;;;;5053273;28;20465;-78
2023/12/02 01:27:18;;;;;;;48.43;24.67;;;;;;;;;;5069974;28;20411;-77
2023/12/02 01:29:44;;;;;;;46.58;24.30;;;;;;;;;;5067929;28;20424;-77
2023/12/02 01:32:10;;;;;;;47.10;24.73;;;;;;;;;;5069892;28;20503;-77
2023/12/02 01:34:36;;;;;;;48.08;24.25;;;;;;;;;;5072758;28;20403;-77
2023/12/02 01:37:03;;;;;;;46.42;23.83;;;;;;;;;;5073324;28;20396;-77
2023/12/02 01:39:29;;;;;;;46.30;24.08;;;;;;;;;;5073598;28;20497;-77
2023/12/02 01:41:55;;;;;;;45.30;23.42;;;;;;;;;;5072161;28;20457;-77
2023/12/02 01:44:21;;;;;;;46.97;24.02;;;;;;;;;;5055996;28;20407;-77
2023/12/02 01:46:47;;;;;;;45.83;24.10;;;;;;;;;;5072010;28;20427;-77
2023/12/02 01:49:13;;;;;;;44.33;23.77;;;;;;;;;;5072138;28;20418;-77
2023/12/02 01:51:39;;;;;;;45.50;24.30;;;;;;;;;;5056370;28;20427;-77
2023/12/02 01:54:05;;;;;;;48.88;24.67;;;;;;;;;;5055655;28;20906;-77
2023/12/02 01:56:31;;;;;;;45.97;23.92;;;;;;;;;;5089579;28;20431;-77
2023/12/02 01:58:57;;;;;;;44.10;23.45;;;;;;;;;;5056033;28;20400;-77
2023/12/02 02:01:23;;;;;;;47.77;24.33;;;;;;;;;;5055313;28;20402;-77
2023/12/02 02:03:50;;;;;;;43.58;24.60;;;;;;;;;;5072349;28;20410;-77
2023/12/02 02:06:16;;;;;;;47.55;24.25;;;;;;;;;;5055221;28;20431;-77
2023/12/02 02:08:43;;;;;;;45.85;24.33;;;;;;;;;;5072989;28;20487;-77
2023/12/02 02:11:09;;;;;;;45.55;24.05;;;;;;;;;;5083078;28;20421;-77
2023/12/02 02:13:35;;;;;;;45.38;24.77;;;;;;;;;;5085188;28;20762;-77
2023/12/02 02:16:02;;;;;;;49.58;26.15;;;;;;;;;;5055251;28;20487;-77
2023/12/02 02:18:29;;;;;;;47.78;24.90;;;;;;;;;;5072698;28;20418;-77
2023/12/02 02:20:55;;;;;;;49.47;25.38;;;;;;;;;;5072418;28;20771;-76
2023/12/02 02:23:22;;;;;;;46.85;25.77;;;;;;;;;;5038532;28;20435;-76
2023/12/02 02:25:49;;;;;;;49.60;26.20;;;;;;;;;;5073565;28;20463;-76
2023/12/02 02:28:21;;;;;;;45.17;24.63;;;;;;;;;;5054425;28;20407;-77
2023/12/02 02:30:47;;;;;;;46.17;25.00;;;;;;;;;;5072015;28;20468;-76
2023/12/02 02:33:14;;;;;;;48.15;25.02;;;;;;;;;;5071989;28;20403;-76
2023/12/02 02:35:40;;;;;;;44.72;24.88;;;;;;;;;;5055478;28;20453;-76
2023/12/02 02:38:06;;;;;;;47.58;24.83;;;;;;;;;;5061559;28;20777;-76
2023/12/02 02:40:32;;;;;;;45.92;24.83;;;;;;;;;;5055870;28;20752;-77
2023/12/02 02:42:58;;;;;;;45.83;23.98;;;;;;;;;;5079281;28;20790;-76
2023/12/02 02:45:24;;;;;;;47.43;25.10;;;;;;;;;;5072404;28;20411;-76
2023/12/02 02:47:50;;;;;;;46.42;24.45;;;;;;;;;;5073054;28;20402;-76
2023/12/02 02:50:16;;;;;;;45.35;24.20;;;;;;;;;;5043404;28;20523;-76
2023/12/02 02:52:43;;;;;;;45.38;24.25;;;;;;;;;;5100982;27;20434;-76
2023/12/02 02:55:09;;;;;;;46.50;24.48;;;;;;;;;;5043055;28;20415;-77
2023/12/02 02:57:36;;;;;;;44.85;23.73;;;;;;;;;;5053750;28;20414;-76
2023/12/02 03:00:04;;;;;;;42.85;23.70;;;;;;;;;;5071131;28;20899;-76
2023/12/02 03:02:30;;;;;;;43.53;24.33;;;;;;;;;;5072077;28;20399;-77
2023/12/02 03:04:58;;;;;;;47.08;24.65;;;;;;;;;;5054787;28;20446;-76
2023/12/02 03:07:24;;;;;;;46.20;24.45;;;;;;;;;;5072612;28;20523;-76
2023/12/02 03:09:50;;;;;;;45.63;24.10;;;;;;;;;;5070934;28;20410;-77
2023/12/02 03:12:16;;;;;;;44.80;24.13;;;;;;;;;;5070873;28;20412;-77
2023/12/02 03:14:42;;;;;;;44.47;23.20;;;;;;;;;;5103162;28;20436;-77
2023/12/02 03:17:08;;;;;;;44.00;24.25;;;;;;;;;;5105431;28;20469;-77
2023/12/02 03:19:35;;;;;;;46.50;24.73;;;;;;;;;;5055344;28;20411;-76
2023/12/02 03:22:02;;;;;;;45.78;24.17;;;;;;;;;;5071328;28;20423;-77
2023/12/02 03:24:28;;;;;;;46.40;24.40;;;;;;;;;;5075450;28;20852;-77
2023/12/02 03:26:55;;;;;;;47.90;25.02;;;;;;;;;;5053998;28;20776;-77
2023/12/02 03:29:21;;;;;;;44.90;24.27;;;;;;;;;;5054943;28;20473;-76
2023/12/02 03:31:47;;;;;;;44.95;24.48;;;;;;;;;;5070670;28;20478;-76
2023/12/02 03:34:13;;;;;;;42.92;23.50;;;;;;;;;;5054136;28;20404;-76
2023/12/02 03:36:39;;;;;;;46.72;24.52;;;;;;;;;;5087505;28;20410;-76
2023/12/02 03:39:06;;;;;;;43.22;23.52;;;;;;;;;;5071242;28;20391;-76
2023/12/02 03:41:32;;;;;;;46.47;23.83;;;;;;;;;;5069609;28;20400;-77
2023/12/02 03:43:58;;;;;;;47.50;24.55;;;;;;;;;;5069886;28;20420;-77
2023/12/02 03:46:26;;;;;;;43.00;23.75;;;;;;;;;;5071109;28;20407;-76
2023/12/02 03:48:53;;;;;;;45.78;24.60;;;;;;;;;;5070333;28;20403;-76
2023/12/02 03:51:19;;;;;;;44.10;22.98;;;;;;;;;;5070016;28;20950;-76
2023/12/02 03:53:45;;;;;;;43.58;23.50;;;;;;;;;;5070964;28;20806;-76
2023/12/02 03:56:12;;;;;;;45.08;24.58;;;;;;;;;;5069496;28;20408;-76
2023/12/02 03:58:38;;;;;;;45.55;24.50;;;;;;;;;;5071119;28;20396;-76
2023/12/02 04:01:04;;;;;;;46.47;23.27;;;;;;;;;;5072014;28;20439;-76
2023/12/02 04:03:30;;;;;;;44.60;23.17;;;;;;;;;;5067960;28;20413;-76
2023/12/02 04:05:56;;;;;;;40.85;22.50;;;;;;;;;;5070585;28;20891;-76
2023/12/02 04:08:22;;;;;;;42.50;22.58;;;;;;;;;;5054136;28;20403;-76
2023/12/02 04:10:48;;;;;;;42.10;23.10;;;;;;;;;;5053092;28;20431;-77
2023/12/02 04:13:14;;;;;;;43.37;24.03;;;;;;;;;;5053593;28;20439;-77
2023/12/02 04:15:40;;;;;;;43.08;22.65;;;;;;;;;;5085819;28;20400;-77
2023/12/02 04:18:07;;;;;;;44.03;22.30;;;;;;;;;;5046341;28;20473;-77
2023/12/02 04:20:33;;;;;;;44.38;23.45;;;;;;;;;;5048906;28;20442;-77
2023/12/02 04:22:59;;;;;;;41.88;22.73;;;;;;;;;;5070177;28;20410;-77
2023/12/02 04:25:25;;;;;;;47.72;24.55;;;;;;;;;;5069108;28;20407;-76
2023/12/02 04:27:51;;;;;;;45.10;23.77;;;;;;;;;;5086769;28;20490;-76
2023/12/02 04:30:17;;;;;;;43.90;23.50;;;;;;;;;;5070048;28;20435;-76
2023/12/02 04:32:43;;;;;;;43.60;23.47;;;;;;;;;;5052400;28;20469;-76
2023/12/02 04:35:10;;;;;;;43.60;23.48;;;;;;;;;;5054023;28;20490;-76
2023/12/02 04:37:36;;;;;;;44.53;24.08;;;;;;;;;;5071385;28;20435;-76
2023/12/02 04:40:04;;;;;;;44.92;23.00;;;;;;;;;;5069986;28;20483;-77
2023/12/02 04:42:30;;;;;;;44.83;23.35;;;;;;;;;;5068198;28;20449;-76
2023/12/02 04:44:56;;;;;;;44.75;24.15;;;;;;;;;;5070371;28;20399;-76
2023/12/02 04:47:22;;;;;;;42.23;22.90;;;;;;;;;;5068393;28;20419;-76
2023/12/02 04:49:48;;;;;;;41.10;22.45;;;;;;;;;;5053530;28;20414;-76
2023/12/02 04:52:14;;;;;;;41.78;22.90;;;;;;;;;;5084065;28;20895;-76
2023/12/02 04:54:40;;;;;;;45.25;24.00;;;;;;;;;;5087076;28;20458;-76
2023/12/02 04:57:07;;;;;;;49.08;25.02;;;;;;;;;;5071596;28;20415;-76
2023/12/02 04:59:33;;;;;;;46.97;24.07;;;;;;;;;;5069701;28;20517;-76
2023/12/02 05:01:59;;;;;;;44.47;23.23;;;;;;;;;;5069151;28;20771;-77
2023/12/02 05:04:25;;;;;;;46.63;23.38;;;;;;;;;;5068546;28;20457;-77
2023/12/02 05:06:54;;;;;;;50.55;25.42;;;;;;;;;;5072316;28;20392;-77
2023/12/02 05:09:21;;;;;;;46.28;24.02;;;;;;;;;;5095592;28;20899;-77
2023/12/02 05:11:47;;;;;;;45.00;23.73;;;;;;;;;;5063354;28;20435;-77
2023/12/02 05:14:13;;;;;;;49.10;24.80;;;;;;;;;;5073822;28;20474;-77
2023/12/02 05:16:42;;;;;;;43.65;22.27;;;;;;;;;;5039386;28;20406;-77
2023/12/02 05:19:08;;;;;;;46.28;23.42;;;;;;;;;;5095692;27;20449;-77
2023/12/02 05:21:36;;;;;;;44.20;23.98;;;;;;;;;;5072374;28;20423;-76
2023/12/02 05:24:02;;;;;;;45.85;24.17;;;;;;;;;;5055778;28;20910;-77
2023/12/02 05:26:28;;;;;;;43.08;22.92;;;;;;;;;;5057406;28;20890;-77
2023/12/02 05:28:54;;;;;;;48.55;24.83;;;;;;;;;;5053299;28;20403;-77
2023/12/02 05:31:21;;;;;;;47.35;24.95;;;;;;;;;;5082220;28;20427;-76
2023/12/02 05:33:47;;;;;;;49.47;24.02;;;;;;;;;;5066182;28;20796;-76
2023/12/02 05:36:13;;;;;;;51.33;24.67;;;;;;;;;;5066788;28;20465;-77
2023/12/02 05:38:39;;;;;;;48.55;24.45;;;;;;;;;;5072015;28;20425;-77
2023/12/02 05:41:06;;;;;;;49.60;25.25;;;;;;;;;;5073122;28;20408;-76
2023/12/02 05:43:32;;;;;;;47.80;24.83;;;;;;;;;;5073161;28;20913;-76
2023/12/02 05:45:59;;;;;;;45.20;24.35;;;;;;;;;;5072128;28;20514;-76
2023/12/02 05:48:25;;;;;;;48.33;24.42;;;;;;;;;;5073500;28;20403;-76
2023/12/02 05:50:51;;;;;;;48.58;25.42;;;;;;;;;;5072548;28;20436;-75
2023/12/02 05:53:17;;;;;;;49.38;24.58;;;;;;;;;;5090062;28;20549;-76
2023/12/02 05:55:43;;;;;;;54.30;26.35;;;;;;;;;;5069914;28;20489;-76
2023/12/02 05:58:09;;;;;;;52.13;26.08;;;;;;;;;;5073234;28;20482;-76
2023/12/02 06:00:35;;;;;;;56.57;24.33;;;;;;;;;;5069613;28;20413;-76
2023/12/02 06:03:02;;;;;;;54.00;26.80;;;;;;;;;;5086892;28;20912;-76
2023/12/02 06:05:29;;;;;;;78.07;27.98;;;;;;;;;;5101629;28;20410;-76
2023/12/02 06:07:55;;;;;;;102.50;29.03;;;;;;;;;;5089839;28;20899;-76
2023/12/02 06:10:21;;;;;;;53.42;25.90;;;;;;;;;;5034544;28;20467;-78
2023/12/02 06:12:47;;;;;;;134.23;33.40;;;;;;;;;;5105728;28;20395;-76
2023/12/02 06:15:13;;;;;;;53.08;26.70;;;;;;;;;;5056371;28;20400;-77
2023/12/02 06:17:39;;;;;;;50.92;25.52;;;;;;;;;;5055237;28;20439;-77
2023/12/02 06:20:06;;;;;;;50.63;24.88;;;;;;;;;;5071677;28;20545;-77
2023/12/02 06:22:35;;;;;;;51.72;25.70;;;;;;;;;;5088604;28;20396;-76
2023/12/02 06:25:02;;;;;;;50.00;24.27;;;;;;;;;;5071168;28;20423;-77
2023/12/02 06:27:28;;;;;;;49.72;24.23;;;;;;;;;;5072401;28;20407;-76
2023/12/02 06:29:54;;;;;;;50.45;24.98;;;;;;;;;;5072315;28;20403;-77
2023/12/02 06:32:20;;;;;;;49.03;24.80;;;;;;;;;;5071905;28;20403;-77
2023/12/02 06:34:46;;;;;;;48.78;25.05;;;;;;;;;;5089496;28;20434;-77
2023/12/02 06:37:12;;;;;;;51.55;25.13;;;;;;;;;;5093158;28;20905;-76
2023/12/02 06:39:38;;;;;;;51.67;26.20;;;;;;;;;;5072878;28;20399;-76
2023/12/02 06:42:04;;;;;;;50.92;24.83;;;;;;;;;;5071038;28;20767;-76
2023/12/02 06:44:31;;;;;;;52.95;25.88;;;;;;;;;;5072733;28;20431;-76
2023/12/02 06:46:57;;;;;;;51.70;25.38;;;;;;;;;;5071123;28;20419;-77
2023/12/02 06:49:23;;;;;;;50.50;25.05;;;;;;;;;;5056059;28;20411;-76
2023/12/02 06:51:49;;;;;;;51.95;25.13;;;;;;;;;;5072628;28;20423;-76
2023/12/02 06:54:15;;;;;;;51.65;24.73;;;;;;;;;;5072741;28;20434;-77
2023/12/02 06:56:41;;;;;;;53.78;25.63;;;;;;;;;;5074076;28;20407;-78
2023/12/02 06:59:07;;;;;;;51.58;25.55;;;;;;;;;;5090375;28;20472;-77
2023/12/02 07:01:34;;;;;;;52.67;25.90;;;;;;;;;;5071841;28;20744;-77
2023/12/02 07:04:00;;;;;;;52.45;25.95;;;;;;;;;;5071445;28;20795;-77
2023/12/02 07:06:27;;;;;;;54.10;25.65;;;;;;;;;;5073886;28;20798;-77
2023/12/02 07:08:54;;;;;;;51.00;25.35;;;;;;;;;;5090478;28;20404;-78
2023/12/02 07:11:20;;;;;;;54.38;25.05;;;;;;;;;;5072620;28;20424;-78
2023/12/02 07:13:46;;;;;;;52.50;25.40;;;;;;;;;;5071959;28;20474;-77
2023/12/02 07:16:13;;;;;;;53.92;25.08;;;;;;;;;;5088649;28;20461;-78
2023/12/02 07:18:40;;;;;;;51.85;25.23;;;;;;;;;;5059808;28;20487;-78
2023/12/02 07:21:07;;;;;;;52.75;25.25;;;;;;;;;;5073305;28;20427;-76
2023/12/02 07:23:33;;;;;;;53.72;25.48;;;;;;;;;;5106830;27;20435;-77
2023/12/02 07:25:59;;;;;;;55.40;26.33;;;;;;;;;;5071623;28;20798;-77
2023/12/02 07:28:26;;;;;;;56.15;26.52;;;;;;;;;;5075814;28;20456;-77
2023/12/02 07:30:52;;;;;;;51.07;25.23;;;;;;;;;;5073091;28;20500;-78
2023/12/02 07:33:22;;;;;;;53.38;25.95;;;;;;;;;;5078178;28;20399;-77
2023/12/02 07:35:48;;;;;;;54.38;26.77;;;;;;;;;;5069608;28;20428;-78
2023/12/02 07:38:14;;;;;;;53.50;25.67;;;;;;;;;;5075943;28;20409;-77
2023/12/02 07:40:40;;;;;;;58.17;26.77;;;;;;;;;;5072109;28;20482;-78
2023/12/02 07:43:06;;;;;;;53.50;25.60;;;;;;;;;;5054372;28;20407;-77
2023/12/02 07:45:32;;;;;;;55.10;26.38;;;;;;;;;;5070443;28;20411;-76
2023/12/02 07:47:58;;;;;;;53.25;26.30;;;;;;;;;;5068140;28;20423;-75
2023/12/02 07:50:24;;;;;;;52.67;26.60;;;;;;;;;;5069988;28;20427;-75
2023/12/02 07:52:50;;;;;;;55.63;27.13;;;;;;;;;;5036193;28;20415;-75
2023/12/02 07:55:17;;;;;;;56.90;26.75;;;;;;;;;;5069560;28;20605;-77
2023/12/02 07:57:43;;;;;;;56.22;26.33;;;;;;;;;;5056575;28;20439;-76
2023/12/02 08:00:10;;;;;;;55.53;27.02;;;;;;;;;;5069857;28;20392;-76
2023/12/02 08:02:36;;;;;;;54.88;25.63;;;;;;;;;;5066373;28;20415;-76
2023/12/02 08:05:02;;;;;;;56.63;26.40;;;;;;;;;;5052894;28;20403;-75
2023/12/02 08:07:28;;;;;;;55.80;26.23;;;;;;;;;;5069682;28;20399;-75
2023/12/02 08:09:54;;;;;;;60.40;28.10;;;;;;;;;;5086674;28;20482;-75
2023/12/02 08:12:20;;;;;;;55.80;26.50;;;;;;;;;;5086900;28;20394;-74
2023/12/02 08:14:46;;;;;;;55.92;26.52;;;;;;;;;;5069326;28;20407;-75
2023/12/02 08:17:12;;;;;;;55.30;25.95;;;;;;;;;;5051580;28;20910;-75
2023/12/02 08:19:38;;;;;;;58.00;27.92;;;;;;;;;;5052602;28;20744;-75
2023/12/02 08:22:04;;;;;;;57.63;27.77;;;;;;;;;;5069579;28;20403;-75
2023/12/02 08:24:35;;;;;;;55.92;27.60;;;;;;;;;;5060908;28;20471;-75
2023/12/02 08:27:01;;;;;;;59.30;27.33;;;;;;;;;;5069100;28;20400;-75
2023/12/02 08:29:27;;;;;;;61.90;27.63;;;;;;;;;;5070162;28;20883;-75
2023/12/02 08:31:54;;;;;;;67.68;30.85;;;;;;;;;;5069229;28;20430;-75
2023/12/02 08:34:20;;;;;;;61.73;28.70;;;;;;;;;;5067273;28;20548;-75
2023/12/02 08:36:46;;;;;;;62.55;28.75;;;;;;;;;;5086766;28;20400;-75
2023/12/02 08:39:12;;;;;;;61.03;29.20;;;;;;;;;;5052053;28;20410;-74
2023/12/02 08:41:38;;;;;;;58.92;27.95;;;;;;;;;;5069245;28;20764;-75
2023/12/02 08:44:04;;;;;;;59.70;27.77;;;;;;;;;;5068620;28;20439;-75
2023/12/02 08:46:30;;;;;;;56.83;27.05;;;;;;;;;;5068779;28;20893;-75
2023/12/02 08:48:56;;;;;;;59.28;27.77;;;;;;;;;;5067617;28;20490;-75
2023/12/02 08:51:22;;;;;;;62.17;29.55;;;;;;;;;;5068732;28;20489;-75
2023/12/02 08:53:55;;;;;;;54.58;27.27;;;;;;;;;;5067721;28;20443;-75
2023/12/02 08:56:21;;;;;;;59.17;28.97;;;;;;;;;;5071267;28;20438;-75
2023/12/02 08:58:48;;;;;;;59.85;27.83;;;;;;;;;;5049086;28;20457;-75
2023/12/02 09:01:14;;;;;;;57.80;27.38;;;;;;;;;;5068004;28;20404;-75
2023/12/02 09:03:40;;;;;;;58.45;27.65;;;;;;;;;;5052675;28;20490;-75
2023/12/02 09:06:06;;;;;;;57.55;28.05;;;;;;;;;;5068520;28;20412;-75
2023/12/02 09:08:32;;;;;;;55.65;26.73;;;;;;;;;;5067529;28;20427;-74
2023/12/02 09:10:58;;;;;;;58.00;27.42;;;;;;;;;;5068693;28;20942;-74
2023/12/02 09:13:24;;;;;;;60.13;27.27;;;;;;;;;;5068759;28;20865;-77
2023/12/02 09:15:50;;;;;;;56.08;26.50;;;;;;;;;;5069675;28;20400;-75
2023/12/02 09:18:27;;;;;;;64.18;29.58;;;;;;;;;;5069039;28;20879;-76
2023/12/02 09:20:55;;;;;;;59.97;28.10;;;;;;;;;;5069599;28;20439;-77
2023/12/02 09:23:21;;;;;;;60.70;28.70;;;;;;;;;;5102614;28;20419;-77
2023/12/02 09:25:50;;;;;;;55.58;28.08;;;;;;;;;;5066679;28;21195;-77
2023/12/02 09:28:17;;;;;;;58.63;28.00;;;;;;;;;;5106798;28;20423;-78
2023/12/02 09:30:58;;;;;;;52.38;26.90;;;;;;;;;;5052491;28;20420;-78
2023/12/02 09:33:25;;;;;;;56.92;27.52;;;;;;;;;;5085676;28;20533;-78
2023/12/02 09:35:53;;;;;;;59.47;28.58;;;;;;;;;;5084805;28;20486;-78
2023/12/02 09:38:19;;;;;;;60.78;28.98;;;;;;;;;;5071275;28;20477;-78
2023/12/02 09:40:46;;;;;;;60.05;29.10;;;;;;;;;;5072718;28;20431;-77
2023/12/02 09:43:22;;;;;;;55.90;26.83;;;;;;;;;;5069580;28;20399;-78
2023/12/02 09:46:02;;;;;;;55.60;27.73;;;;;;;;;;5069253;28;20972;-78
2023/12/02 09:48:31;;;;;;;56.20;27.65;;;;;;;;;;5033885;28;20916;-78
2023/12/02 09:51:08;;;;;;;58.83;28.17;;;;;;;;;;5067889;28;20481;-77
2023/12/02 09:53:37;;;;;;;54.42;26.77;;;;;;;;;;5086177;28;20917;-78
2023/12/02 09:56:08;;;;;;;54.90;27.75;;;;;;;;;;5062854;28;20537;-78
2023/12/02 09:58:41;;;;;;;53.28;26.23;;;;;;;;;;5073300;28;20745;-79
2023/12/02 10:01:07;;;;;;;54.55;26.05;;;;;;;;;;5072777;28;20414;-76
2023/12/02 10:03:40;;;;;;;55.37;26.10;;;;;;;;;;5083824;28;20451;-77
2023/12/02 10:06:15;;;;;;;55.60;26.95;;;;;;;;;;5052102;28;20403;-78
2023/12/02 10:08:56;;;;;;;54.15;26.55;;;;;;;;;;5106898;28;20407;-76
2023/12/02 10:11:27;;;;;;;50.13;25.38;;;;;;;;;;5089228;28;20420;-77
2023/12/02 10:13:57;;;;;;;50.70;24.38;;;;;;;;;;5073113;28;20440;-81
2023/12/02 10:16:24;;;;;;;48.83;24.50;;;;;;;;;;5065835;28;20407;-81
2023/12/02 10:18:52;;;;;;;48.85;24.80;;;;;;;;;;5055874;28;20407;-83
2023/12/02 10:21:20;;;;;;;51.70;25.52;;;;;;;;;;5072176;28;20907;-79
2023/12/02 10:23:50;;;;;;;47.10;23.60;;;;;;;;;;5064391;28;20412;-78
2023/12/02 10:26:19;;;;;;;48.58;24.20;;;;;;;;;;5072649;28;20406;-83
2023/12/02 10:29:09;;;;;;;44.83;23.35;;;;;;;;;;5061321;28;20400;-80
2023/12/02 10:31:36;;;;;;;43.88;22.45;;;;;;;;;;5055722;28;20425;-78
2023/12/02 10:34:02;;;;;;;46.40;23.40;;;;;;;;;;5088924;28;20417;-79
2023/12/02 10:36:32;;;;;;;48.13;23.33;;;;;;;;;;5055142;28;20442;-78
2023/12/02 10:39:09;;;;;;;43.65;23.38;;;;;;;;;;5104045;28;20552;-77
2023/12/02 10:41:44;;;;;;;46.65;23.70;;;;;;;;;;5102849;27;20416;-76
2023/12/02 10:44:11;;;;;;;45.70;23.48;;;;;;;;;;5096985;28;21421;-76
2023/12/02 10:46:39;;;;;;;46.17;22.63;;;;;;;;;;5074767;28;20469;-76
2023/12/02 10:49:06;;;;;;;45.07;23.93;;;;;;;;;;5081282;28;20404;-76
2023/12/02 10:51:35;;;;;;;43.17;23.40;;;;;;;;;;5087852;28;20511;-76
2023/12/02 10:54:04;;;;;;;43.13;22.23;;;;;;;;;;5065258;28;20403;-76
2023/12/02 10:56:35;;;;;;;43.67;22.58;;;;;;;;;;5097869;28;20796;-76
2023/12/02 10:59:01;;;;;;;38.95;21.33;;;;;;;;;;5070702;28;20417;-76
2023/12/02 11:02:01;;;;;;;41.45;21.77;;;;;;;;;;5070198;28;20926;-75
2023/12/02 11:04:42;;;;;;;37.65;21.27;;;;;;;;;;5062672;28;20911;-76
2023/12/02 11:07:11;;;;;;;53.20;30.48;;;;;;;;;;5069417;28;20459;-76
2023/12/02 11:09:47;;;;;;;39.03;21.50;;;;;;;;;;5070602;28;20461;-73
2023/12/02 11:12:23;;;;;;;43.95;24.25;;;;;;;;;;5070746;28;20829;-75
2023/12/02 11:14:52;;;;;;;55.35;31.50;;;;;;;;;;5071000;28;20410;-74
2023/12/02 11:17:27;;;;;;;70.82;43.42;;;;;;;;;;5070190;28;20453;-74
2023/12/02 11:20:31;;;;;;;38.60;20.60;;;;;;;;;;5074299;28;20501;-76
2023/12/02 11:23:03;;;;;;;36.53;20.00;;;;;;;;;;5003920;28;20408;-75
2023/12/02 11:25:46;;;;;;;37.10;20.98;;;;;;;;;;4992897;28;20923;-75
2023/12/02 11:28:17;;;;;;;36.30;19.20;;;;;;;;;;5048075;28;20408;-76
2023/12/02 11:30:57;;;;;;;36.47;20.67;;;;;;;;;;5087233;28;20554;-75
2023/12/02 11:33:32;;;;;;;37.83;20.92;;;;;;;;;;5053413;28;20849;-75
2023/12/02 11:36:22;;;;;;;35.92;18.48;;;;;;;;;;5070251;28;20615;-75
2023/12/02 11:38:51;;;;;;;33.42;17.75;;;;;;;;;;5043882;28;20411;-75
2023/12/02 11:41:20;;;;;;;31.38;17.00;;;;;;;;;;5052864;28;20892;-74
2023/12/02 11:44:05;;;;;;;32.45;17.05;;;;;;;;;;5068115;28;20455;-74
2023/12/02 11:46:33;;;;;;;30.70;17.40;;;;;;;;;;5070051;28;20485;-75
2023/12/02 11:49:06;;;;;;;29.55;16.45;;;;;;;;;;5067186;28;20404;-74
2023/12/02 11:51:35;;;;;;;29.10;16.33;;;;;;;;;;5069274;28;20791;-74
2023/12/02 11:54:32;;;;;;;31.58;16.10;;;1.90;99.90;;;;;;5070027;28;20418;-74
2023/12/02 11:57:30;;;;;;;30.70;16.17;;;;;;;;;;5067122;28;20842;-74
2023/12/02 12:00:09;;;;;;;34.72;22.15;;;;;;;;;;5055669;28;20435;-74
2023/12/02 12:02:54;;;;;;;33.72;16.80;;;;;;;;;;5070341;28;20423;-74
2023/12/02 12:05:23;;;;;;;28.83;15.10;;;;;;;;;;5070181;28;20407;-74
2023/12/02 12:07:58;;;;;;;28.33;15.77;;;;;;;;;;5068843;28;20442;-74
2023/12/02 12:10:35;;;;;;;27.55;15.07;;;;;;;;;;5069995;28;20424;-74
2023/12/02 12:13:02;;;;;;;27.17;14.43;;;;;;;;;;5070598;28;20431;-74
2023/12/02 12:15:29;;;;;;;26.08;14.27;;;;;;;;;;5086942;28;20414;-72
2023/12/02 12:17:55;;;;;;;25.98;13.93;;;;;;;;;;5070220;28;20483;-72
2023/12/02 12:20:29;;;;;;;26.92;14.13;;;;;;;;;;5070101;28;20431;-73
2023/12/02 12:22:55;;;;;;;25.80;14.70;;;;;;;;;;5070321;28;20786;-73
2023/12/02 12:25:22;;;;;;;23.92;13.13;;;;;;;;;;5069358;28;20481;-73
2023/12/02 12:27:49;;;;;;;29.98;17.00;;;;;;;;;;5069821;28;20403;-73
2023/12/02 12:30:15;;;;;;;24.13;13.23;;;;;;;;;;5070493;28;20411;-73
2023/12/02 12:32:41;;;;;;;24.83;13.35;;;;;;;;;;5070105;28;20728;-73
2023/12/02 12:35:11;;;;;;;22.75;12.82;;;;;;;;;;5072425;28;20398;-73
2023/12/02 12:37:37;;;;;;;24.77;14.18;;;;;;;;;;5068094;28;20400;-72
2023/12/02 12:40:04;;;;;;;36.42;15.98;;;;;;;;;;5064847;28;20480;-72
2023/12/02 12:42:30;;;;;;;24.77;14.95;;;;;;;;;;5073912;28;20433;-72
2023/12/02 12:45:00;;;;;;;21.27;11.10;;;;;;;;;;5071820;28;20425;-72
2023/12/02 12:47:30;;;;;;;40.38;20.05;;;;;;;;;;5050969;28;20419;-73
2023/12/02 12:49:58;;;;;;;20.20;10.93;;;;;;;;;;5075420;28;20404;-73
2023/12/02 12:52:25;;;;;;;20.13;11.48;;;;;;;;;;5050271;28;20428;-72
2023/12/02 12:54:52;;;;;;;18.83;11.20;;;;;;;;;;5069084;28;20407;-73
2023/12/02 12:57:42;;;;;;;17.65;9.32;;;;;;;;;;5070240;28;20405;-73
2023/12/02 13:00:10;;;;;;;17.95;9.90;;;;;;;;;;5059221;28;20400;-73
2023/12/02 13:02:54;;;;;;;17.65;9.77;;;2.50;99.90;;;;;;5068699;28;20395;-73
2023/12/02 13:05:22;;;;;;;19.77;10.63;;;;;;;;;;5035684;28;20401;-73
2023/12/02 13:08:03;;;;;;;19.33;11.27;;;;;;;;;;5069528;28;20548;-74
2023/12/02 13:10:34;;;;;;;18.77;11.43;;;;;;;;;;5062882;28;20502;-74
2023/12/02 13:13:02;;;;;;;22.67;14.60;;;;;;;;;;5085220;28;20448;-74
2023/12/02 13:15:29;;;;;;;14.07;8.57;;;;;;;;;;5049044;28;20857;-74
2023/12/02 13:17:55;;;;;;;15.88;9.15;;;;;;;;;;5101367;28;20959;-74
2023/12/02 13:20:22;;;;;;;15.23;8.60;;;;;;;;;;5085933;28;20490;-74
2023/12/02 13:22:49;;;;;;;17.02;8.88;;;;;;;;;;5067645;28;20416;-74
2023/12/02 13:25:25;;;;;;;15.30;9.02;;;;;;;;;;5087712;28;20545;-80
2023/12/02 13:28:02;;;;;;;17.98;8.82;;;;;;;;;;5071016;28;20400;-79
2023/12/02 13:30:28;;;;;;;16.15;9.80;;;;;;;;;;5106945;28;20423;-78
2023/12/02 13:32:55;;;;;;;15.30;9.20;;;;;;;;;;5056796;28;20403;-79
2023/12/02 13:35:30;;;;;;;18.60;9.80;;;;;;;;;;5099914;28;20487;-78
2023/12/02 13:37:56;;;;;;;17.13;9.43;;;;;;;;;;5060885;28;20417;-79
2023/12/02 13:40:27;;;;;;;19.65;10.18;;;;;;;;;;5082619;28;20460;-79
2023/12/02 13:42:54;;;;;;;17.85;10.00;;;;;;;;;;5069054;28;20759;-79
2023/12/02 13:45:21;;;;;;;16.90;9.82;;;;;;;;;;5078878;28;20490;-79
2023/12/02 13:47:47;;;;;;;18.52;10.07;;;;;;;;;;5072175;28;20507;-79
2023/12/02 13:50:15;;;;;;;17.88;10.45;;;;;;;;;;5092314;28;20562;-79
2023/12/02 13:52:53;;;;;;;17.25;9.90;;;;;;;;;;5066153;28;20499;-79
2023/12/02 13:55:31;;;;;;;14.45;9.25;;;;;;;;;;5067092;28;20898;-80
2023/12/02 13:58:33;;;;;;;13.40;7.70;;;;;;;;;;5055885;28;20507;-78
2023/12/02 14:01:04;;;;;;;14.60;8.02;;;;;;;;;;5014967;28;20411;-80
2023/12/02 14:03:49;;;;;;;12.43;7.10;;;;;;;;;;5062666;28;20411;-78
2023/12/02 14:06:19;;;;;;;11.13;7.17;;;;;;;;;;5068373;28;20450;-80
2023/12/02 14:08:48;;;;;;;13.55;7.57;;;;;;;;;;5072586;28;20408;-80
2023/12/02 14:11:17;;;;;;;12.98;7.30;;;;;;;;;;5072268;28;20470;-79
2023/12/02 14:13:45;;;;;;;10.35;6.20;;;;;;;;;;5071756;28;20415;-79
2023/12/02 14:16:23;;;;;;;10.63;6.25;;;;;;;;;;5072141;28;20407;-79
2023/12/02 14:18:55;;;;;;;10.98;6.45;;;;;;;;;;5064013;28;20408;-79
2023/12/02 14:21:24;;;;;;;11.88;6.50;;;;;;;;;;5104074;28;20407;-80
2023/12/02 14:24:02;;;;;;;10.40;6.28;;;;;;;;;;5057888;28;21039;-79